Time;durP1;ratioP1;P1;durP2;ratioP2;P2;SDS_P1;SDS_P2;PMS_P1;PMS_P2;Temp;Humidity;BMP_temperature;BMP_pressure;BME280_temperature;BME280_humidity;BME280_pressure;Samples;Min_cycle;Max_cycle;Signal;HPM_P1;HPM_P2
2022/01/02 00:00:06;;;;;;;7.57;3.10;;;;;;;13.03;100.00;101440.25;5112905;27;20384;-70
2022/01/02 00:02:34;;;;;;;6.93;2.75;;;;;;;13.07;100.00;101440.25;5104768;27;20132;-71
2022/01/02 00:05:16;;;;;;;5.95;2.63;;;;;;;13.07;100.00;101436.25;5101171;27;20500;-71
2022/01/02 00:07:45;;;;;;;7.55;3.10;;;;;;;13.09;100.00;101435.09;5095352;27;20103;-70
2022/01/02 00:10:12;;;;;;;5.88;2.70;;;;;;;13.12;100.00;101428.75;5101785;27;20143;-71
2022/01/02 00:12:43;;;;;;;3.80;1.77;;;;;;;13.11;99.36;101416.03;5089750;27;20048;-72
2022/01/02 00:15:11;;;;;;;3.88;1.95;;;;;;;13.20;98.59;101433.09;5107561;27;20057;-71
2022/01/02 00:17:38;;;;;;;9.32;2.95;;;;;;;13.28;97.55;101431.91;5103833;27;20086;-70
2022/01/02 00:20:12;;;;;;;4.28;1.92;;;;;;;13.32;97.01;101427.13;5113786;27;20818;-72
2022/01/02 00:22:41;;;;;;;11.07;3.30;;;;;;;13.38;96.41;101414.41;5087683;28;20538;-71
2022/01/02 00:25:22;;;;;;;3.38;1.40;;;;;;;13.43;95.41;101430.69;5101439;27;20126;-71
2022/01/02 00:27:51;;;;;;;8.95;2.85;;;;;;;13.49;94.87;101423.53;5109496;27;20044;-71
2022/01/02 00:30:18;;;;;;;2.80;1.25;;;;;;;13.44;94.25;101415.59;5103158;27;20063;-71
2022/01/02 00:32:44;;;;;;;7.15;2.15;;;;;;;13.49;94.21;101404.06;5107933;27;20061;-70
2022/01/02 00:35:11;;;;;;;7.78;2.08;;;;;;;13.46;93.82;101411.22;5121353;27;20049;-73
2022/01/02 00:37:39;;;;;;;6.93;2.55;;;;;;;13.48;93.55;101408.03;5111277;27;20154;-71
2022/01/02 00:40:06;;;;;;;4.40;1.52;;;;;;;13.49;92.86;101412.41;5096458;27;20063;-71
2022/01/02 00:42:37;;;;;;;7.10;2.45;;;;;;;13.55;92.97;101403.28;5111425;27;20609;-70
2022/01/02 00:45:05;;;;;;;5.88;2.45;;;;;;;13.55;92.08;101406.06;5115366;27;20064;-69
2022/01/02 00:48:03;;;;;;;7.78;2.78;;;;;;;13.57;91.89;101414.00;5104594;27;20531;-72
2022/01/02 00:50:37;;;;;;;4.05;1.95;;;;;;;13.60;91.42;101432.66;5098006;27;20138;-72
2022/01/02 00:53:05;;;;;;;7.90;3.00;;;;;;;13.63;91.51;101415.19;5091035;27;20123;-70
2022/01/02 00:55:34;;;;;;;6.22;2.15;;;;;;;13.60;91.31;101404.84;5102671;27;20059;-69
2022/01/02 00:58:03;;;;;;;6.40;3.00;;;;;;;13.67;91.13;101393.72;5105723;27;20143;-72
2022/01/02 01:00:31;;;;;;;5.82;2.45;;;;;;;13.64;90.75;101403.66;5092470;27;20059;-69
2022/01/02 01:03:05;;;;;;;13.07;2.90;;;;;;;13.64;90.97;101419.53;5107558;28;20500;-69
2022/01/02 01:05:33;;;;;;;7.10;2.22;;;;;;;13.64;90.22;101413.97;5111039;27;20134;-71
2022/01/02 01:08:03;;;;;;;4.28;2.00;;;;;;;13.65;89.95;101424.69;5108336;27;20644;-70
2022/01/02 01:10:32;;;;;;;4.35;1.90;;;;;;;13.67;89.35;101438.97;5103934;28;20483;-71
2022/01/02 01:13:02;;;;;;;1.35;0.93;;;;;;;13.75;89.32;101439.75;5109404;27;20396;-70
2022/01/02 01:15:30;;;;;;;5.97;1.50;;;;;;;13.75;89.32;101439.75;5104615;28;20059;-69
2022/01/02 01:18:00;;;;;;;7.60;2.63;;;;;;;13.79;88.74;101435.78;5100436;28;20090;-71
2022/01/02 01:20:29;;;;;;;3.10;1.48;;;;;;;13.84;88.22;101438.13;5113027;28;20044;-68
2022/01/02 01:22:56;;;;;;;6.72;2.45;;;;;;;13.86;88.72;101434.97;5096451;28;20052;-70
2022/01/02 01:25:24;;;;;;;1.90;1.52;;;;;;;13.81;88.85;101438.16;5107735;28;20142;-71
2022/01/02 01:27:53;;;;;;;1.80;1.35;;;;;;;13.78;89.02;101437.00;5105948;28;20068;-71
2022/01/02 01:30:23;;;;;;;7.82;2.65;;;;;;;13.84;89.22;101435.34;5106789;27;20461;-70
2022/01/02 01:32:50;;;;;;;3.33;1.23;;;;;;;13.80;88.49;101447.72;5099965;28;20134;-71
2022/01/02 01:35:16;;;;;;;4.53;2.17;;;;;;;13.91;87.41;101443.69;5100953;27;20051;-72
2022/01/02 01:37:43;;;;;;;3.08;1.25;;;;;;;13.98;86.39;101440.91;5117987;27;20549;-69
2022/01/02 01:40:15;;;;;;;5.22;1.83;;;;;;;14.03;85.89;101440.47;5107411;27;20055;-70
2022/01/02 01:42:55;;;;;;;5.07;2.28;;;;;;;14.07;84.70;101451.59;5104776;27;20054;-70
2022/01/02 01:47:50;;;;;;;6.45;2.72;;;;;;;14.29;83.37;101442.78;5099924;27;20134;-68
2022/01/02 01:50:18;;;;;;;4.97;1.77;;;;;;;14.31;83.43;101434.81;5100909;27;20051;-73
2022/01/02 01:52:45;;;;;;;7.57;2.55;;;;;;;14.43;82.40;101442.72;5099650;27;20078;-71
2022/01/02 01:55:12;;;;;;;5.90;2.08;;;;;;;14.41;81.80;101424.81;5094970;27;20059;-70
2022/01/02 01:57:40;;;;;;;4.43;1.58;;;;;;;14.48;82.09;101422.78;5113252;27;20122;-70
2022/01/02 02:00:10;;;;;;;7.40;1.60;;;;;;;14.41;82.88;101433.97;5107791;27;20055;-70
2022/01/02 02:02:37;;;;;;;8.93;2.50;;;;;;;14.51;83.80;101418.41;5112852;27;20062;-71
2022/01/02 02:05:05;;;;;;;3.47;1.58;;;;;;;14.43;84.94;101425.19;5104324;27;20051;-70
2022/01/02 02:07:39;;;;;;;8.55;2.90;;;;;;;14.33;85.69;101424.06;5120304;27;20123;-71
2022/01/02 02:10:38;;;;;;;5.60;1.57;;;;;;;14.30;86.60;101413.75;5108540;27;20486;-70
2022/01/02 02:13:06;;;;;;;5.90;2.15;;;;;;;14.33;86.35;101414.91;5101679;28;20492;-72
2022/01/02 02:15:32;;;;;;;5.93;1.98;;;;;;;14.19;86.85;101415.75;5106895;27;20054;-72
2022/01/02 02:17:59;;;;;;;7.03;2.08;;;;;;;14.19;87.53;101417.75;5115924;27;20064;-70
2022/01/02 02:20:29;;;;;;;2.60;1.55;;;;;;;14.17;86.97;101415.34;5116657;27;20078;-69
2022/01/02 02:22:57;;;;;;;3.50;2.00;;;;;;;14.19;86.80;101426.91;5099541;28;20099;-71
2022/01/02 02:25:36;;;;;;;4.28;1.65;;;;;;;14.19;86.55;101421.31;5102023;27;20075;-69
2022/01/02 02:28:10;;;;;;;2.22;1.65;;;;;;;14.21;86.73;101413.34;5102524;27;20514;-72
2022/01/02 02:30:38;;;;;;;5.88;2.47;;;;;;;14.17;87.62;101418.13;5113746;27;20100;-70
2022/01/02 02:33:06;;;;;;;6.82;1.95;;;;;;;14.14;88.85;101410.59;5112798;27;20781;-70
2022/01/02 02:35:34;;;;;;;7.55;1.98;;;;;;;14.10;88.78;101395.09;5098005;27;20130;-68
2022/01/02 02:38:03;;;;;;;6.05;2.55;;;;;;;14.10;90.16;101390.34;5112493;27;20480;-70
2022/01/02 02:40:30;;;;;;;4.50;1.50;;;;;;;14.03;91.45;101389.56;5109018;28;20066;-70
2022/01/02 02:51:05;;;;;;;3.42;1.92;;;;;;;13.74;95.43;101400.03;5115022;27;20055;-73
2022/01/02 02:53:35;;;;;;;2.13;1.25;;;;;;;13.72;95.51;101394.09;5121179;27;20043;-72
2022/01/02 02:56:12;;;;;;;9.18;3.63;;;;;;;13.75;96.00;101400.81;5114280;27;20451;-69
2022/01/02 02:58:39;;;;;;;12.73;3.20;;;;;;;13.69;97.63;101391.31;5100164;27;20122;-70
2022/01/02 03:01:08;;;;;;;5.03;1.30;;;;;;;13.61;98.00;101379.44;5104747;27;20142;-71
2022/01/02 03:03:35;;;;;;;8.65;2.88;;;;;;;13.55;98.42;101388.56;5089855;28;20052;-72
2022/01/02 03:06:02;;;;;;;5.18;2.00;;;;;;;13.57;98.82;101378.63;5100640;28;20076;-70
2022/01/02 03:08:30;;;;;;;10.65;3.50;;;;;;;13.60;99.20;101358.34;5122686;27;20051;-71
2022/01/02 03:10:57;;;;;;;13.75;4.22;;;;;;;13.60;98.81;101321.44;5107556;27;20747;-70
2022/01/02 03:13:24;;;;;;;11.18;3.70;;;;;;;13.63;99.76;101331.75;5112325;27;20134;-69
2022/01/02 03:15:50;;;;;;;6.22;2.20;;;;;;;13.54;100.00;101312.72;5104394;27;20055;-70
2022/01/02 03:18:17;;;;;;;10.68;2.95;;;;;;;13.55;100.00;101297.63;5116268;27;20058;-71
2022/01/02 03:20:44;;;;;;;10.70;3.78;;;;;;;13.51;100.00;101318.28;5113190;27;20217;-69
2022/01/02 03:23:11;;;;;;;8.73;2.35;;;;;;;13.46;100.00;101327.81;5111204;27;20043;-68
2022/01/02 03:25:38;;;;;;;9.48;3.10;;;;;;;13.48;100.00;101335.75;5108074;27;20354;-71
2022/01/02 03:28:04;;;;;;;14.02;3.55;;;;;;;13.43;100.00;101336.19;5111189;27;20078;-69
2022/01/02 03:30:31;;;;;;;9.52;2.80;;;;;;;13.42;100.00;101327.03;5103679;27;20062;-69
2022/01/02 03:32:57;;;;;;;3.53;2.10;;;;;;;13.37;100.00;101333.03;5115349;27;20652;-69
2022/01/02 03:35:24;;;;;;;8.70;2.65;;;;;;;13.39;100.00;101332.63;5103396;27;20069;-71
2022/01/02 03:37:51;;;;;;;9.93;3.00;;;;;;;13.43;100.00;101323.06;5105712;27;20053;-70
2022/01/02 03:40:17;;;;;;;8.60;2.35;;;;;;;13.40;100.00;101301.63;5116974;27;20126;-70
2022/01/02 03:42:44;;;;;;;13.45;4.80;;;;;;;13.38;100.00;101295.69;5106303;27;20061;-71
2022/01/02 03:45:11;;;;;;;11.07;2.88;;;;;;;13.31;100.00;101295.72;5110000;27;20050;-69
2022/01/02 03:47:37;;;;;;;21.95;4.50;;;;;;;13.29;100.00;101300.88;5106268;27;20054;-73
2022/01/02 03:50:05;;;;;;;16.35;4.40;;;;;;;13.31;100.00;101292.94;5108935;27;20056;-71
2022/01/02 03:52:32;;;;;;;12.90;3.97;;;;;;;13.23;100.00;101313.59;5092815;27;20060;-70
2022/01/02 03:54:58;;;;;;;11.35;3.28;;;;;;;13.14;100.00;101298.53;5102080;27;20051;-72
2022/01/02 03:57:25;;;;;;;13.73;3.63;;;;;;;13.09;100.00;101304.50;5123432;27;20092;-71
2022/01/02 03:59:52;;;;;;;12.00;3.08;;;;;;;13.02;100.00;101308.06;5108320;27;20055;-71
2022/01/02 04:02:18;;;;;;;9.50;3.40;;;;;;;13.00;100.00;101302.16;5108219;28;20047;-71
2022/01/02 04:04:45;;;;;;;13.30;3.85;;;;;;;13.01;100.00;101312.06;5105688;27;20291;-71
2022/01/02 04:07:12;;;;;;;7.75;2.25;;;;;;;12.99;100.00;101303.31;5104797;27;20043;-73
2022/01/02 04:09:38;;;;;;;11.57;3.67;;;;;;;13.01;100.00;101289.84;5097844;27;20381;-70
2022/01/02 04:12:05;;;;;;;15.63;3.70;;;;;;;12.95;100.00;101288.63;5108716;27;20092;-68
2022/01/02 04:14:31;;;;;;;14.55;3.42;;;;;;;12.96;100.00;101277.09;5101042;27;20423;-71
2022/01/02 04:17:00;;;;;;;16.23;4.57;;;;;;;12.93;100.00;101266.03;5105331;27;20058;-70
2022/01/02 04:19:27;;;;;;;11.85;3.72;;;;;;;12.89;100.00;101260.47;5116700;27;20094;-70
2022/01/02 04:21:54;;;;;;;11.02;3.70;;;;;;;12.93;100.00;101258.47;5097753;27;20126;-70
2022/01/02 04:24:20;;;;;;;11.25;3.55;;;;;;;12.91;100.00;101246.19;5100976;27;20690;-69
2022/01/02 04:26:47;;;;;;;13.68;4.25;;;;;;;12.88;100.00;101258.09;5092420;27;20196;-69
2022/01/02 04:29:13;;;;;;;14.80;3.45;;;;;;;12.83;100.00;101264.06;5106519;28;20048;-71
2022/01/02 04:31:40;;;;;;;14.10;4.68;;;;;;;12.89;100.00;101271.56;5105446;27;20134;-71
2022/01/02 04:34:07;;;;;;;17.42;3.03;;;;;;;12.89;100.00;101268.00;5119777;27;20062;-72
2022/01/02 04:36:33;;;;;;;2.20;1.35;;;;;;;12.87;100.00;101273.16;5124298;27;20897;-70
2022/01/02 04:39:00;;;;;;;9.25;3.08;;;;;;;12.86;100.00;101266.81;5132072;27;20130;-72
2022/01/02 04:41:26;;;;;;;11.68;3.40;;;;;;;12.90;100.00;101264.03;5107584;27;20138;-72
2022/01/02 04:43:53;;;;;;;14.70;3.20;;;;;;;12.88;100.00;101263.63;5124520;27;20131;-70
2022/01/02 04:46:19;;;;;;;14.77;3.75;;;;;;;12.89;100.00;101249.34;5103967;27;20051;-70
2022/01/02 04:48:46;;;;;;;13.05;4.00;;;;;;;12.89;100.00;101231.88;5087872;28;20048;-70
2022/01/02 04:51:12;;;;;;;7.20;2.20;;;;;;;12.90;100.00;101237.03;5091026;27;20051;-73
2022/01/02 04:53:47;;;;;;;12.07;3.20;;;;;;;12.93;100.00;101238.25;5109573;27;20473;-70
2022/01/02 04:56:14;;;;;;;7.22;1.95;;;;;;;12.92;100.00;101236.66;5093271;27;20131;-71
2022/01/02 04:58:41;;;;;;;5.00;1.50;;;;;;;12.93;100.00;101218.81;5107644;27;20138;-73
2022/01/02 05:01:11;;;;;;;15.00;3.53;;;;;;;12.97;100.00;101230.69;5102955;27;20135;-72
2022/01/02 05:03:38;;;;;;;10.73;2.53;;;;;;;12.98;100.00;101226.72;5088261;28;20064;-71
2022/01/02 05:06:06;;;;;;;12.60;3.67;;;;;;;12.98;100.00;101221.16;5092612;28;20067;-72
2022/01/02 05:08:33;;;;;;;19.50;5.13;;;;;;;13.02;100.00;101224.75;5104665;27;20473;-70
2022/01/02 05:10:59;;;;;;;8.00;2.03;;;;;;;12.99;100.00;101214.44;5106691;27;20535;-73
2022/01/02 05:13:26;;;;;;;9.93;2.42;;;;;;;12.98;100.00;101229.50;5111832;27;20552;-71
2022/01/02 05:15:53;;;;;;;11.90;3.65;;;;;;;13.03;100.00;101221.56;5096062;28;20109;-71
2022/01/02 05:18:20;;;;;;;14.57;3.90;;;;;;;13.04;100.00;101216.81;5110750;27;20043;-72
2022/01/02 05:20:46;;;;;;;9.73;3.15;;;;;;;13.05;100.00;101221.16;5105665;27;20039;-71
2022/01/02 05:23:14;;;;;;;3.83;1.73;;;;;;;13.10;100.00;101215.22;5109727;28;20461;-70
2022/01/02 05:25:40;;;;;;;9.88;2.47;;;;;;;13.12;100.00;101207.25;5100203;28;20048;-71
2022/01/02 05:28:07;;;;;;;17.40;4.45;;;;;;;13.18;100.00;101202.88;5110472;28;20531;-71
2022/01/02 05:30:34;;;;;;;6.20;2.70;;;;;;;13.22;100.00;101206.41;5109116;28;20517;-69
2022/01/02 05:33:00;;;;;;;9.45;3.38;;;;;;;13.22;100.00;101198.06;5095869;28;20147;-71
2022/01/02 05:35:27;;;;;;;8.77;3.33;;;;;;;13.25;100.00;101202.84;5107055;28;20503;-72
2022/01/02 05:37:53;;;;;;;5.32;1.67;;;;;;;13.30;100.00;101196.88;5100162;28;20127;-70
2022/01/02 05:40:20;;;;;;;14.27;3.90;;;;;;;13.35;100.00;101204.78;5115071;28;20043;-71
2022/01/02 05:42:46;;;;;;;12.35;3.53;;;;;;;13.41;100.00;101192.03;5093651;28;20052;-71
2022/01/02 05:45:13;;;;;;;12.32;3.28;;;;;;;13.37;100.00;101187.69;5090972;28;20052;-70
2022/01/02 05:47:40;;;;;;;11.98;3.85;;;;;;;13.36;100.00;101180.56;5105160;28;20048;-72
2022/01/02 05:50:08;;;;;;;11.80;3.55;;;;;;;13.35;100.00;101178.97;5087297;28;20134;-73
2022/01/02 05:52:34;;;;;;;15.93;4.50;;;;;;;13.32;100.00;101169.44;5099931;28;20050;-71
2022/01/02 05:55:01;;;;;;;13.90;3.58;;;;;;;13.25;100.00;101175.03;5105701;28;20076;-73
2022/01/02 05:57:27;;;;;;;10.48;2.83;;;;;;;13.26;100.00;101175.84;5111550;28;20131;-70
2022/01/02 05:59:54;;;;;;;14.70;2.85;;;;;;;13.25;100.00;101172.25;5091182;28;20131;-71
2022/01/02 06:02:20;;;;;;;15.02;4.25;;;;;;;13.25;100.00;101166.72;5101306;28;20760;-71
2022/01/02 06:04:47;;;;;;;13.55;4.10;;;;;;;13.19;100.00;101156.44;5107370;28;20131;-71
2022/01/02 06:07:15;;;;;;;14.23;3.97;;;;;;;13.16;100.00;101154.47;5102758;28;20079;-72
2022/01/02 06:09:42;;;;;;;8.13;3.15;;;;;;;13.16;100.00;101168.34;5102485;28;20090;-70
2022/01/02 06:12:08;;;;;;;12.60;4.03;;;;;;;13.16;100.00;101146.13;5086562;28;20605;-74
2022/01/02 06:14:35;;;;;;;14.20;3.95;;;;;;;13.16;100.00;101141.34;5104044;28;20115;-70
2022/01/02 06:17:01;;;;;;;14.35;4.10;;;;;;;13.12;100.00;101137.78;5108067;28;20229;-70
2022/01/02 06:19:28;;;;;;;12.75;3.83;;;;;;;13.12;100.00;101139.78;5105238;28;20107;-72
2022/01/02 06:21:55;;;;;;;13.38;4.03;;;;;;;13.10;100.00;101142.19;5106996;27;20083;-70
2022/01/02 06:24:22;;;;;;;13.35;4.30;;;;;;;13.06;100.00;101131.06;5114685;27;20046;-73
2022/01/02 06:26:48;;;;;;;12.88;3.70;;;;;;;13.04;100.00;101130.69;5105801;27;20058;-71
2022/01/02 06:29:15;;;;;;;12.98;4.03;;;;;;;13.05;100.00;101126.72;5109335;27;20044;-70
2022/01/02 06:31:42;;;;;;;14.02;4.10;;;;;;;13.01;100.00;101128.72;5098112;27;20575;-74
2022/01/02 06:34:08;;;;;;;15.57;4.63;;;;;;;12.99;100.00;101120.78;5110035;27;20056;-72
2022/01/02 06:36:35;;;;;;;21.17;4.40;;;;;;;13.01;100.00;101103.72;5111986;27;20728;-70
2022/01/02 06:39:03;;;;;;;20.23;4.00;;;;;;;12.97;100.00;101098.13;5115053;27;20051;-70
2022/01/02 06:41:29;;;;;;;12.35;3.90;;;;;;;12.99;100.00;101095.00;5099202;27;20070;-71
2022/01/02 06:43:56;;;;;;;17.35;3.92;;;;;;;13.00;100.00;101091.03;5106639;27;20051;-71
2022/01/02 06:46:22;;;;;;;15.43;3.75;;;;;;;12.94;100.00;101082.31;5105990;28;20611;-71
2022/01/02 06:48:49;;;;;;;14.23;4.90;;;;;;;12.94;100.00;101073.97;5102857;27;20058;-72
2022/01/02 06:51:36;;;;;;;15.93;4.18;;;;;;;12.92;100.00;101061.66;5097234;27;20048;-71
2022/01/02 06:54:03;;;;;;;16.63;4.18;;;;;;;12.90;100.00;101083.50;5117790;27;20051;-71
2022/01/02 06:56:29;;;;;;;16.60;3.83;;;;;;;12.86;100.00;101079.97;5098932;27;20039;-73
2022/01/02 06:58:56;;;;;;;18.42;4.47;;;;;;;12.86;100.00;101072.41;5102747;28;20048;-72
2022/01/02 07:01:22;;;;;;;14.70;4.68;;;;;;;12.85;100.00;101065.28;5100526;28;20121;-69
2022/01/02 07:03:49;;;;;;;11.73;3.63;;;;;;;12.80;100.00;101057.34;5100351;28;20051;-70
2022/01/02 07:06:16;;;;;;;17.27;4.65;;;;;;;12.83;100.00;101055.78;5101507;28;20522;-72
2022/01/02 07:08:42;;;;;;;16.00;4.63;;;;;;;12.84;100.00;101051.78;5096976;28;20044;-70
2022/01/02 07:11:10;;;;;;;14.43;4.07;;;;;;;12.85;100.00;101042.25;5107093;28;20075;-71
2022/01/02 07:13:38;;;;;;;13.05;4.20;;;;;;;12.86;100.00;101030.75;5109957;28;20062;-73
2022/01/02 07:16:05;;;;;;;14.65;4.32;;;;;;;12.86;100.00;101022.41;5107674;28;20671;-70
2022/01/02 07:18:32;;;;;;;21.60;4.90;;;;;;;12.87;100.00;100973.22;5101446;28;20079;-70
2022/01/02 07:20:58;;;;;;;17.75;4.35;;;;;;;12.82;100.00;100949.47;5104480;28;20126;-71
2022/01/02 07:23:25;;;;;;;14.77;4.10;;;;;;;12.79;100.00;100950.25;5102793;27;20127;-70
2022/01/02 07:25:51;;;;;;;6.28;1.90;;;;;;;12.74;100.00;100966.56;5105714;27;20082;-73
2022/01/02 07:28:19;;;;;;;13.57;3.60;;;;;;;12.85;100.00;100981.16;5104254;28;20043;-71
2022/01/02 07:30:45;;;;;;;13.02;2.63;;;;;;;12.85;100.00;100975.63;5101198;28;20729;-71
2022/01/02 07:33:12;;;;;;;14.63;3.70;;;;;;;12.82;100.00;100980.00;5104475;28;20184;-71
2022/01/02 07:35:38;;;;;;;13.10;4.05;;;;;;;12.82;100.00;100971.66;5114714;27;20080;-70
2022/01/02 07:38:27;;;;;;;6.78;2.10;;;;;;;12.80;100.00;100971.28;5119715;27;20046;-71
2022/01/02 07:40:53;;;;;;;3.53;1.70;;;;;;;12.79;100.00;100980.00;5116988;27;20062;-71
2022/01/02 07:43:20;;;;;;;12.07;3.58;;;;;;;12.91;100.00;100985.09;5094405;27;20047;-71
2022/01/02 07:45:46;;;;;;;14.95;3.65;;;;;;;12.91;100.00;100972.03;5107265;27;20142;-71
2022/01/02 07:48:13;;;;;;;12.70;4.22;;;;;;;12.92;100.00;100970.00;5108320;28;20059;-70
2022/01/02 07:50:40;;;;;;;15.57;4.78;;;;;;;12.91;100.00;100957.34;5099455;28;20131;-72
2022/01/02 07:53:06;;;;;;;19.05;4.47;;;;;;;12.91;100.00;100974.00;5108026;27;20072;-70
2022/01/02 07:55:33;;;;;;;16.13;4.45;;;;;;;12.95;100.00;100958.09;5109931;28;20106;-71
2022/01/02 07:58:00;;;;;;;16.98;4.13;;;;;;;12.92;100.00;100937.50;5106428;27;20054;-73
2022/01/02 08:00:27;;;;;;;17.08;4.00;;;;;;;12.95;100.00;100938.66;5090700;28;20056;-72
2022/01/02 08:02:53;;;;;;;15.40;4.38;;;;;;;12.95;100.00;100924.75;5103524;28;20571;-70
2022/01/02 08:05:20;;;;;;;18.27;4.57;;;;;;;12.97;100.00;100916.81;5111506;27;20054;-71
2022/01/02 08:07:46;;;;;;;8.50;3.38;;;;;;;12.94;100.00;100906.53;5104367;27;20052;-70
2022/01/02 08:10:13;;;;;;;20.73;5.68;;;;;;;13.00;100.00;100891.81;5089561;28;20044;-70
2022/01/02 08:12:39;;;;;;;9.88;3.45;;;;;;;12.95;100.00;100880.31;5098050;28;20150;-70
2022/01/02 08:15:06;;;;;;;12.23;4.45;;;;;;;13.02;100.00;100852.53;5107018;28;20067;-72
2022/01/02 08:17:33;;;;;;;19.27;4.90;;;;;;;13.06;100.00;100824.72;5093782;27;20470;-71
2022/01/02 08:20:00;;;;;;;2.58;1.67;;;;;;;12.99;100.00;100840.25;5108678;27;20104;-70
2022/01/02 08:22:27;;;;;;;16.42;4.15;;;;;;;12.99;100.00;100833.91;5106777;28;20054;-69
2022/01/02 08:24:53;;;;;;;17.45;4.40;;;;;;;13.06;100.00;100836.59;5093879;28;20139;-71
2022/01/02 08:27:20;;;;;;;18.48;5.20;;;;;;;13.08;100.00;100812.00;5095147;28;20071;-72
2022/01/02 08:29:46;;;;;;;11.73;4.40;;;;;;;13.03;100.00;100818.00;5103529;28;20051;-67
2022/01/02 08:32:13;;;;;;;12.88;5.28;;;;;;;13.11;100.00;100797.28;5094119;28;20083;-72
2022/01/02 08:34:40;;;;;;;4.80;2.28;;;;;;;13.07;100.00;100820.75;5107312;28;20146;-72
2022/01/02 08:37:06;;;;;;;4.45;2.00;;;;;;;13.11;100.00;100850.06;5103493;28;20134;-71
2022/01/02 08:39:33;;;;;;;14.05;3.85;;;;;;;13.19;100.00;100793.22;5088244;28;20043;-71
2022/01/02 08:41:59;;;;;;;15.95;3.72;;;;;;;13.16;100.00;100799.59;5090668;28;20131;-70
2022/01/02 08:44:26;;;;;;;16.92;4.75;;;;;;;13.17;100.00;100792.88;5104641;27;20048;-73
2022/01/02 08:46:52;;;;;;;13.05;4.43;;;;;;;13.15;100.00;100794.44;5112458;27;20443;-70
2022/01/02 08:49:19;;;;;;;16.20;4.30;;;;;;;13.17;100.00;100792.88;5108296;28;20047;-73
2022/01/02 08:51:46;;;;;;;10.77;3.58;;;;;;;13.21;100.00;100788.06;5103185;28;20139;-71
2022/01/02 08:54:12;;;;;;;11.75;3.70;;;;;;;13.21;100.00;100784.47;5098359;28;20058;-70
2022/01/02 08:56:39;;;;;;;6.45;2.72;;;;;;;13.24;100.00;100778.91;5108806;28;20059;-70
2022/01/02 08:59:06;;;;;;;11.02;4.15;;;;;;;13.31;100.00;100770.47;5106815;28;20083;-73
2022/01/02 09:01:32;;;;;;;10.93;3.38;;;;;;;13.32;100.00;100774.81;5105276;28;20043;-70
2022/01/02 09:03:59;;;;;;;7.55;2.42;;;;;;;13.31;100.00;100766.91;5108000;28;20134;-72
2022/01/02 09:06:25;;;;;;;13.27;4.30;;;;;;;13.34;100.00;100785.53;5099617;28;20340;-72
2022/01/02 09:08:53;;;;;;;7.43;2.53;;;;;;;13.32;100.00;100799.03;5105789;28;20067;-74
2022/01/02 09:11:19;;;;;;;17.00;4.05;;;;;;;13.35;100.00;100801.78;5094120;28;21749;-72
2022/01/02 09:13:46;;;;;;;12.50;3.63;;;;;;;13.39;100.00;100810.88;5101507;28;20051;-71
2022/01/02 09:16:12;;;;;;;8.80;2.80;;;;;;;13.62;97.33;100818.53;5108173;28;20499;-72
2022/01/02 09:18:39;;;;;;;6.53;2.40;;;;;;;13.93;93.75;100826.50;5097896;28;20412;-70
2022/01/02 09:21:06;;;;;;;3.13;1.88;;;;;;;14.06;92.46;100841.44;5106303;28;20095;-71
2022/01/02 09:23:32;;;;;;;3.95;1.80;;;;;;;14.19;89.96;100842.44;5107570;27;20055;-70
2022/01/02 09:25:59;;;;;;;2.28;1.08;;;;;;;14.22;88.40;100852.78;5098724;28;20117;-72
2022/01/02 09:28:25;;;;;;;4.97;1.73;;;;;;;14.28;84.87;100858.66;5101819;28;20078;-71
2022/01/02 09:30:52;;;;;;;4.60;2.30;;;;;;;14.30;85.36;100831.97;5105924;28;20582;-72
2022/01/02 09:33:19;;;;;;;3.17;1.55;;;;;;;14.27;83.87;100821.69;5104534;28;20056;-74
2022/01/02 09:35:46;;;;;;;2.33;1.58;;;;;;;14.30;83.90;100828.41;5106465;28;20075;-71
2022/01/02 09:38:12;;;;;;;3.92;1.20;;;;;;;14.31;84.02;100827.97;5104277;28;20051;-71
2022/01/02 09:40:40;;;;;;;5.50;2.40;;;;;;;14.27;83.38;100832.81;5105907;28;20155;-70
2022/01/02 09:43:07;;;;;;;3.05;1.42;;;;;;;14.28;83.24;100820.47;5101148;28;20127;-72
2022/01/02 09:45:35;;;;;;;3.63;1.40;;;;;;;14.23;83.99;100809.03;5106526;28;20548;-74
2022/01/02 09:48:04;;;;;;;11.13;3.00;;;;;;;14.28;84.81;100823.25;5107538;28;20043;-72
2022/01/02 09:50:33;;;;;;;9.63;3.05;;;;;;;14.21;84.79;100811.44;5106506;28;20048;-72
2022/01/02 09:52:59;;;;;;;7.63;1.50;;;;;;;14.15;84.53;100822.25;5091203;28;20071;-74
2022/01/02 09:55:27;;;;;;;5.10;2.22;;;;;;;14.17;84.89;100814.25;5101907;28;20137;-71
2022/01/02 09:57:58;;;;;;;5.43;1.73;;;;;;;14.16;83.84;100820.22;5091948;27;20058;-74
2022/01/02 10:00:24;;;;;;;2.60;1.58;;;;;;;14.23;82.50;100820.97;5096192;27;20071;-72
2022/01/02 10:02:59;;;;;;;5.32;2.22;;;;;;;14.34;81.38;100835.50;5107787;27;20056;-71
2022/01/02 10:05:28;;;;;;;5.55;2.50;;;;;;;14.37;79.68;100831.06;5115758;27;20055;-71
2022/01/02 10:07:56;;;;;;;5.10;2.38;;;;;;;14.45;80.33;100822.19;5106613;27;20511;-71
2022/01/02 10:10:33;;;;;;;2.10;0.88;;;;;;;14.47;79.82;100830.94;5092696;27;20062;-72
2022/01/02 10:13:01;;;;;;;6.80;2.60;;;;;;;14.52;79.03;100844.38;5100414;27;20130;-71
2022/01/02 10:15:28;;;;;;;4.07;1.77;;;;;;;14.49;79.51;100836.88;5093549;27;20529;-72
2022/01/02 10:18:05;;;;;;;4.20;2.00;;;;;;;14.49;81.57;100819.38;5108716;27;20055;-71
2022/01/02 10:20:36;;;;;;;4.15;1.40;;;;;;;14.36;83.78;100812.81;5110125;27;20094;-71
2022/01/02 10:23:08;;;;;;;2.00;1.45;;;;;;;14.31;83.05;100830.00;5114239;27;20124;-71
2022/01/02 10:25:40;;;;;;;5.05;2.15;;;;;;;14.28;82.17;100837.16;5110776;27;20118;-73
2022/01/02 10:28:34;;;;;;;5.72;1.98;;;;;;;14.28;81.68;100828.81;5102652;27;20060;-72
2022/01/02 10:31:03;;;;;;;2.03;1.13;;;;;;;14.23;87.04;100825.72;5102768;27;20132;-74
2022/01/02 10:33:52;;;;;;;4.03;2.03;;;;;;;14.06;87.77;100849.78;5106259;27;20051;-75
2022/01/02 10:36:29;;;;;;;6.95;2.50;;;;;;;14.05;87.28;100825.16;5109530;27;20051;-72
2022/01/02 10:39:06;;;;;;;6.60;3.05;;;;;;;13.91;90.07;100815.00;5110683;27;20518;-72
2022/01/02 10:41:42;;;;;;;9.88;3.05;;;;;;;13.77;92.64;100829.06;5104318;27;20438;-72
2022/01/02 10:44:31;;;;;;;7.15;2.55;;;;;;;13.80;93.07;100813.56;5109695;28;20048;-73
2022/01/02 10:47:08;;;;;;;6.78;2.10;;;;;;;13.76;94.02;100819.16;5116524;27;20520;-71
2022/01/02 10:49:54;;;;;;;5.55;1.48;;;;;;;13.71;94.90;100819.66;5105444;27;20447;-71
2022/01/02 10:52:26;;;;;;;9.63;3.20;;;;;;;13.76;94.00;100824.72;5097731;27;20104;-75
2022/01/02 10:54:53;;;;;;;8.00;2.33;;;;;;;13.74;94.12;100818.78;5099861;27;21571;-72
2022/01/02 10:57:24;;;;;;;7.28;2.60;;;;;;;13.81;93.99;100806.81;5103997;27;20091;-72
2022/01/02 10:59:55;;;;;;;6.95;2.80;;;;;;;13.89;93.02;100803.50;5091133;27;20126;-72
2022/01/02 11:02:23;;;;;;;7.97;2.42;;;;;;;13.85;92.65;100816.69;5104864;27;20142;-70
2022/01/02 11:05:05;;;;;;;4.32;1.55;;;;;;;14.09;92.62;100820.31;5109054;28;20100;-72
2022/01/02 11:07:37;;;;;;;6.93;2.45;;;;;;;14.41;93.59;100810.34;5111058;27;20582;-68
2022/01/02 11:10:04;;;;;;;6.63;2.72;;;;;;;14.81;87.97;100812.09;5106456;27;20136;-72
2022/01/02 11:12:32;;;;;;;4.45;2.20;;;;;;;14.98;86.76;100822.13;5117051;27;20526;-73
2022/01/02 11:14:59;;;;;;;5.28;2.33;;;;;;;14.85;86.75;100815.59;5099253;27;20647;-72
2022/01/02 11:17:27;;;;;;;8.02;3.08;;;;;;;14.56;87.34;100819.25;5116480;27;20143;-72
2022/01/02 11:19:53;;;;;;;8.60;3.13;;;;;;;15.26;85.43;100834.78;5118002;27;20424;-71
2022/01/02 11:22:26;;;;;;;3.88;2.17;;;;;;;16.26;80.59;100818.41;5099603;27;20143;-72
2022/01/02 11:25:01;;;;;;;5.05;2.33;;;;;;;17.03;74.96;100820.13;5092013;27;20143;-68
2022/01/02 11:28:00;;;;;;;11.00;2.92;;;;;;;17.17;72.41;100830.13;5107009;27;20098;-71
2022/01/02 11:30:35;;;;;;;9.48;3.03;;;;;;;16.88;72.72;100826.53;5086932;27;20146;-72
2022/01/02 11:33:15;;;;;;;11.27;3.90;;;;;;;16.43;75.36;100814.47;5104952;27;20047;-71